Time;durP1;ratioP1;P1;durP2;ratioP2;P2;SDS_P1;SDS_P2;PMS_P1;PMS_P2;Temp;Humidity;BMP_temperature;BMP_pressure;BME280_temperature;BME280_humidity;BME280_pressure;Samples;Min_cycle;Max_cycle;Signal;HPM_P1;HPM_P2
2023/04/07 00:00:50;;;;;;;10.60;9.60;;;12.80;67.50;;;;;;4883526;29;20540;-78
2023/04/07 00:03:16;;;;;;;10.45;9.45;;;12.80;67.60;;;;;;4883962;29;20053;-76
2023/04/07 00:05:42;;;;;;;10.43;9.52;;;12.80;67.60;;;;;;4883690;29;20053;-75
2023/04/07 00:08:08;;;;;;;10.23;9.25;;;12.70;67.60;;;;;;4888313;29;20052;-76
2023/04/07 00:10:34;;;;;;;10.95;9.85;;;12.80;67.70;;;;;;4902396;29;20049;-77
2023/04/07 00:13:00;;;;;;;10.48;9.50;;;12.70;67.70;;;;;;4902411;29;20053;-77
2023/04/07 00:15:25;;;;;;;10.27;9.30;;;12.80;67.80;;;;;;4885841;29;20357;-76
2023/04/07 00:17:51;;;;;;;12.27;9.35;;;12.70;67.80;;;;;;4902133;29;20052;-77
2023/04/07 00:20:17;;;;;;;10.23;9.00;;;12.80;67.90;;;;;;4901490;29;20528;-79
2023/04/07 00:22:43;;;;;;;11.63;8.88;;;12.70;68.00;;;;;;4902031;29;20068;-77
2023/04/07 00:25:09;;;;;;;11.18;7.93;;;12.80;68.10;;;;;;4901890;29;20056;-78
2023/04/07 00:27:35;;;;;;;10.68;7.97;;;12.80;68.60;;;;;;4901886;29;20108;-78
2023/04/07 00:30:01;;;;;;;10.48;7.85;;;12.80;67.80;;;;;;4901777;29;20052;-76
2023/04/07 00:32:27;;;;;;;11.43;7.85;;;12.90;67.80;;;;;;4901821;29;20047;-77
2023/04/07 00:34:53;;;;;;;8.55;7.50;;;12.90;67.70;;;;;;4902183;29;20044;-76
2023/04/07 00:37:19;;;;;;;11.23;7.13;;;12.90;67.60;;;;;;4901764;29;20056;-78
2023/04/07 00:39:45;;;;;;;9.32;8.07;;;13.00;67.60;;;;;;4901868;29;20067;-77
2023/04/07 00:42:11;;;;;;;11.93;9.00;;;13.00;67.50;;;;;;4901664;29;20131;-78
2023/04/07 00:44:37;;;;;;;11.02;9.00;;;13.00;67.40;;;;;;4901517;29;20452;-79
2023/04/07 00:47:03;;;;;;;9.63;8.77;;;13.00;67.40;;;;;;4901632;29;20059;-76
2023/04/07 00:49:29;;;;;;;10.25;9.35;;;12.90;67.50;;;;;;4901122;29;20079;-77
2023/04/07 00:51:56;;;;;;;11.52;10.32;;;13.00;68.20;;;;;;4885376;29;20049;-77
2023/04/07 00:54:24;;;;;;;9.85;8.95;;;12.90;67.60;;;;;;4901692;29;20507;-77
2023/04/07 00:56:51;;;;;;;10.43;9.43;;;12.90;67.70;;;;;;4901540;29;20416;-77
2023/04/07 00:59:18;;;;;;;10.75;9.85;;;12.90;67.70;;;;;;4901610;29;20356;-78
2023/04/07 01:01:58;;;;;;;10.73;9.73;;;12.80;67.80;;;;;;4901243;29;20048;-75
2023/04/07 01:04:47;;;;;;;11.85;10.75;;;12.80;67.90;;;;;;4884909;29;20131;-77
2023/04/07 01:07:34;;;;;;;10.35;9.45;;;12.90;68.00;;;;;;4901117;29;20057;-77
2023/04/07 01:10:05;;;;;;;10.75;9.75;;;12.80;68.00;;;;;;4901097;29;20155;-76
2023/04/07 01:12:51;;;;;;;11.30;10.30;;;12.80;68.10;;;;;;4885054;29;20092;-76
2023/04/07 01:15:21;;;;;;;11.23;10.25;;;12.80;68.20;;;;;;4901180;29;20049;-77
2023/04/07 01:17:57;;;;;;;11.25;10.25;;;12.80;68.30;;;;;;4901033;29;20104;-76
2023/04/07 01:20:25;;;;;;;10.80;9.85;;;12.70;68.30;;;;;;4883823;29;20182;-77
2023/04/07 01:22:57;;;;;;;12.45;11.25;;;12.70;68.30;;;;;;4884424;29;20060;-77
2023/04/07 01:25:33;;;;;;;11.48;10.38;;;12.80;68.50;;;;;;4901054;29;20080;-77
2023/04/07 01:28:12;;;;;;;11.10;10.10;;;12.70;68.50;;;;;;4900972;29;20471;-78
2023/04/07 01:30:43;;;;;;;11.80;10.70;;;12.70;68.50;;;;;;4885064;29;20349;-77
2023/04/07 01:33:10;;;;;;;11.98;10.88;;;12.70;68.60;;;;;;4900688;29;20059;-76
2023/04/07 01:35:37;;;;;;;12.35;11.25;;;12.70;68.80;;;;;;4901171;29;20364;-77
2023/04/07 01:38:04;;;;;;;11.40;10.40;;;12.70;68.60;;;;;;4900662;29;20087;-77
2023/04/07 01:40:31;;;;;;;11.07;10.07;;;12.70;68.70;;;;;;4900478;29;20456;-77
2023/04/07 01:42:58;;;;;;;11.52;10.52;;;12.70;68.70;;;;;;4883997;29;20056;-78
2023/04/07 01:45:26;;;;;;;11.30;10.32;;;12.70;68.80;;;;;;4883818;29;20056;-77
2023/04/07 01:47:53;;;;;;;12.32;11.23;;;12.70;68.80;;;;;;4900960;29;20124;-78
2023/04/07 01:50:20;;;;;;;12.00;10.90;;;12.70;68.90;;;;;;4900571;29;20462;-79
2023/04/07 01:52:46;;;;;;;11.65;10.65;;;12.70;69.00;;;;;;4884753;29;20314;-78
2023/04/07 01:55:12;;;;;;;11.80;10.80;;;12.70;69.00;;;;;;4900627;29;20364;-78
2023/04/07 01:57:38;;;;;;;12.05;10.95;;;12.70;69.10;;;;;;4900112;29;20136;-77
2023/04/07 02:00:05;;;;;;;11.90;10.90;;;12.60;69.10;;;;;;4900618;29;20052;-77
2023/04/07 02:02:35;;;;;;;11.60;10.60;;;12.60;69.10;;;;;;4900464;29;20048;-77
2023/04/07 02:05:07;;;;;;;12.05;10.95;;;12.70;69.20;;;;;;4900866;29;20131;-77
2023/04/07 02:07:50;;;;;;;11.90;10.82;;;12.60;69.20;;;;;;4883451;29;20048;-78
2023/04/07 02:10:20;;;;;;;12.23;11.13;;;12.60;69.20;;;;;;4900138;29;20064;-78
2023/04/07 02:12:46;;;;;;;11.18;10.23;;;12.60;69.30;;;;;;4900340;29;20055;-78
2023/04/07 02:15:14;;;;;;;12.02;10.95;;;12.60;69.30;;;;;;4899117;29;20119;-78
2023/04/07 02:17:46;;;;;;;12.05;10.95;;;12.60;69.40;;;;;;4900244;29;20091;-77
2023/04/07 02:20:14;;;;;;;11.07;10.07;;;12.60;69.50;;;;;;4899903;29;20100;-77
2023/04/07 02:22:43;;;;;;;12.75;11.65;;;12.60;69.50;;;;;;4883931;29;20087;-77
2023/04/07 02:25:24;;;;;;;11.90;10.90;;;12.60;69.50;;;;;;4900035;29;20457;-76
2023/04/07 02:27:50;;;;;;;11.50;10.50;;;12.60;69.60;;;;;;4900070;29;20128;-77
2023/04/07 02:30:16;;;;;;;11.70;10.70;;;12.60;69.60;;;;;;4900231;29;20452;-78
2023/04/07 02:32:42;;;;;;;11.55;10.55;;;12.60;69.70;;;;;;4900050;29;20045;-77
2023/04/07 02:35:09;;;;;;;11.90;10.80;;;12.60;69.70;;;;;;4899579;29;20459;-77
2023/04/07 02:37:34;;;;;;;11.98;10.88;;;12.60;70.30;;;;;;4899903;29;20052;-76
2023/04/07 02:40:00;;;;;;;11.60;10.60;;;12.60;69.70;;;;;;4884125;29;20063;-76
2023/04/07 02:42:26;;;;;;;10.77;9.88;;;12.60;69.80;;;;;;4883462;29;20053;-78
2023/04/07 02:44:52;;;;;;;12.30;11.20;;;12.50;69.70;;;;;;4899947;29;20059;-77
2023/04/07 02:47:17;;;;;;;10.63;9.73;;;12.60;69.80;;;;;;4899786;29;20489;-77
2023/04/07 02:49:43;;;;;;;11.20;10.20;;;12.60;69.80;;;;;;4899733;29;20048;-78
2023/04/07 02:52:09;;;;;;;11.52;10.48;;;12.60;69.80;;;;;;4883684;29;20048;-78
2023/04/07 02:54:35;;;;;;;11.85;10.75;;;12.60;69.90;;;;;;4883842;29;20055;-77
2023/04/07 02:57:01;;;;;;;11.52;10.52;;;12.50;69.90;;;;;;4899716;29;20052;-78
2023/04/07 02:59:27;;;;;;;11.73;10.73;;;12.60;70.00;;;;;;4883378;29;20053;-78
2023/04/07 03:01:52;;;;;;;11.30;10.30;;;12.50;69.90;;;;;;4900465;29;20139;-76
2023/04/07 03:04:18;;;;;;;10.45;9.55;;;12.50;70.00;;;;;;4899557;29;20467;-76
2023/04/07 03:06:44;;;;;;;11.00;10.00;;;12.60;70.00;;;;;;4899575;29;20138;-76
2023/04/07 03:09:09;;;;;;;10.57;9.60;;;12.50;70.10;;;;;;4899502;29;20487;-78
2023/04/07 03:11:35;;;;;;;10.98;9.98;;;12.50;70.10;;;;;;4899953;29;20160;-78
2023/04/07 03:14:01;;;;;;;10.68;9.68;;;12.60;70.20;;;;;;4867625;29;20052;-77
2023/04/07 03:16:26;;;;;;;10.90;9.90;;;12.50;70.20;;;;;;4899638;29;20058;-78
2023/04/07 03:18:52;;;;;;;11.60;10.40;;;12.50;70.20;;;;;;4899365;29;20044;-78
2023/04/07 03:21:18;;;;;;;10.10;9.10;;;12.50;70.20;;;;;;4900164;29;20148;-77
2023/04/07 03:23:43;;;;;;;10.50;9.57;;;12.50;70.20;;;;;;4900360;29;20049;-78
2023/04/07 03:26:09;;;;;;;11.25;10.25;;;12.50;70.20;;;;;;4902235;29;20052;-78
2023/04/07 03:28:35;;;;;;;10.48;9.48;;;12.50;70.30;;;;;;4903049;29;20049;-76
2023/04/07 03:31:01;;;;;;;11.18;10.18;;;12.50;70.40;;;;;;4902855;29;20097;-78
2023/04/07 03:33:27;;;;;;;10.73;9.73;;;12.50;70.40;;;;;;4903235;29;20088;-78
2023/04/07 03:35:52;;;;;;;11.50;10.25;;;12.50;70.40;;;;;;4902779;29;20087;-76
2023/04/07 03:38:18;;;;;;;10.65;9.60;;;12.50;70.40;;;;;;4886026;29;20053;-76
2023/04/07 03:40:44;;;;;;;10.85;9.75;;;12.50;70.40;;;;;;4886017;29;20064;-78
2023/04/07 03:43:13;;;;;;;10.73;9.73;;;12.50;70.50;;;;;;4902607;29;20053;-78
2023/04/07 03:45:38;;;;;;;12.05;10.80;;;12.50;70.60;;;;;;4902781;29;20093;-78
2023/04/07 03:48:04;;;;;;;10.52;9.43;;;12.50;70.60;;;;;;4902781;29;20449;-76
2023/04/07 03:50:30;;;;;;;10.93;9.93;;;12.50;70.60;;;;;;4903164;29;20512;-79
2023/04/07 03:52:56;;;;;;;10.52;9.43;;;12.50;70.60;;;;;;4902677;29;20044;-77
2023/04/07 03:55:22;;;;;;;10.60;9.60;;;12.50;70.60;;;;;;4902600;29;20088;-77
2023/04/07 03:57:47;;;;;;;10.75;9.75;;;12.50;70.60;;;;;;4902176;29;20070;-76
2023/04/07 04:00:13;;;;;;;11.10;10.13;;;12.50;70.70;;;;;;4902647;29;20110;-77
2023/04/07 04:02:39;;;;;;;12.10;10.65;;;12.50;70.70;;;;;;4902308;29;20362;-77
2023/04/07 04:05:05;;;;;;;10.98;9.93;;;12.50;70.70;;;;;;4885863;29;20060;-77
2023/04/07 04:07:32;;;;;;;11.52;10.43;;;12.50;70.80;;;;;;4902050;29;20380;-76
2023/04/07 04:09:58;;;;;;;10.48;9.48;;;12.50;70.70;;;;;;4902349;29;20060;-77
2023/04/07 04:12:23;;;;;;;10.88;9.88;;;12.50;70.80;;;;;;4901991;29;20424;-78
2023/04/07 04:14:49;;;;;;;10.50;9.50;;;12.50;70.80;;;;;;4885657;29;20060;-76
2023/04/07 04:17:15;;;;;;;12.05;10.88;;;12.50;70.80;;;;;;4902432;29;20079;-78
2023/04/07 04:19:41;;;;;;;11.23;10.15;;;12.40;70.70;;;;;;4886170;29;20057;-77
2023/04/07 04:22:06;;;;;;;11.45;10.25;;;12.40;70.70;;;;;;4902035;29;20056;-76
2023/04/07 04:24:32;;;;;;;11.65;10.55;;;12.50;70.80;;;;;;4902037;29;20488;-76
2023/04/07 04:26:58;;;;;;;14.63;10.65;;;12.50;70.80;;;;;;4884912;29;20464;-77
2023/04/07 04:29:27;;;;;;;10.73;9.50;;;12.40;70.90;;;;;;4901728;29;20135;-79
2023/04/07 04:31:52;;;;;;;14.55;8.98;;;12.50;71.10;;;;;;4885342;29;20404;-75
2023/04/07 04:34:18;;;;;;;10.07;8.70;;;12.50;71.40;;;;;;4884956;29;20088;-76
2023/04/07 04:36:50;;;;;;;13.57;7.88;;;12.60;71.60;;;;;;4883516;29;20539;-73
2023/04/07 04:39:15;;;;;;;12.73;7.05;;;12.80;71.60;;;;;;4901921;29;20052;-74
2023/04/07 04:41:41;;;;;;;13.85;6.97;;;12.90;71.60;;;;;;4885154;29;20103;-75
2023/04/07 04:44:07;;;;;;;16.42;6.35;;;13.10;71.50;;;;;;4901748;29;20119;-72
2023/04/07 04:46:33;;;;;;;19.75;5.82;;;13.30;71.40;;;;;;4901491;29;20040;-73
2023/04/07 04:48:58;;;;;;;18.52;5.85;;;13.40;71.40;;;;;;4898984;29;20060;-73
2023/04/07 04:51:25;;;;;;;16.40;5.85;;;13.60;71.30;;;;;;4900610;29;20085;-74
2023/04/07 04:53:51;;;;;;;20.00;5.30;;;13.70;71.20;;;;;;4901499;29;20060;-75
2023/04/07 04:56:16;;;;;;;14.80;5.47;;;13.80;71.20;;;;;;4884744;29;20053;-74
2023/04/07 04:58:45;;;;;;;15.35;4.63;;;13.90;71.20;;;;;;4899928;29;20056;-73
2023/04/07 05:01:13;;;;;;;20.30;5.38;;;14.00;71.20;;;;;;4898689;29;20434;-75
2023/04/07 05:03:39;;;;;;;14.70;4.60;;;14.00;71.10;;;;;;4899427;29;20371;-77
2023/04/07 05:06:05;;;;;;;11.70;3.97;;;14.10;71.00;;;;;;4893202;29;20045;-76
2023/04/07 05:08:31;;;;;;;18.23;4.05;;;14.20;71.00;;;;;;4888638;29;20075;-78
2023/04/07 05:10:57;;;;;;;21.13;4.25;;;14.30;71.00;;;;;;4885077;29;20053;-76
2023/04/07 05:13:24;;;;;;;21.35;3.97;;;14.40;70.80;;;;;;4883083;29;20051;-76
2023/04/07 05:15:50;;;;;;;15.07;3.88;;;14.50;70.80;;;;;;4885342;29;20060;-80
2023/04/07 05:18:16;;;;;;;11.68;3.95;;;14.60;70.80;;;;;;4884896;29;20049;-77
2023/04/07 05:20:43;;;;;;;16.42;4.00;;;14.70;70.80;;;;;;4900980;29;20471;-77
2023/04/07 05:23:09;;;;;;;17.73;4.30;;;14.70;70.70;;;;;;4900765;29;20480;-76
2023/04/07 05:25:35;;;;;;;20.63;4.47;;;14.70;69.80;;;;;;4900304;29;20127;-80
2023/04/07 05:28:04;;;;;;;13.85;3.92;;;14.70;70.20;;;;;;4884647;29;20056;-80
2023/04/07 05:30:30;;;;;;;18.40;3.90;;;14.80;70.40;;;;;;4869076;29;20045;-81
2023/04/07 05:32:55;;;;;;;16.40;3.28;;;14.90;70.50;;;;;;4883642;29;20131;-80
2023/04/07 05:35:21;;;;;;;16.70;4.15;;;15.00;70.60;;;;;;4884211;29;20067;-78
2023/04/07 05:37:50;;;;;;;22.70;4.00;;;15.10;70.50;;;;;;4881158;29;20590;-80
2023/04/07 05:40:15;;;;;;;14.20;3.80;;;15.10;70.50;;;;;;4880416;29;20445;-80
2023/04/07 05:42:41;;;;;;;26.27;5.10;;;15.20;70.70;;;;;;4882244;29;20163;-80
2023/04/07 05:45:10;;;;;;;14.25;3.95;;;15.20;70.70;;;;;;4881843;29;20157;-76
2023/04/07 05:47:36;;;;;;;15.60;4.25;;;15.20;70.30;;;;;;4881507;29;20349;-80
2023/04/07 05:50:02;;;;;;;12.57;4.22;;;15.20;70.00;;;;;;4865300;29;20049;-79
2023/04/07 05:52:27;;;;;;;9.90;4.07;;;15.20;69.80;;;;;;4881705;29;20037;-77
2023/04/07 05:54:53;;;;;;;11.80;3.58;;;15.20;69.80;;;;;;4885385;29;20052;-78
2023/04/07 05:57:19;;;;;;;13.77;3.63;;;15.20;69.70;;;;;;4884041;29;20044;-80
2023/04/07 05:59:45;;;;;;;13.77;3.72;;;15.10;69.60;;;;;;4883861;29;20135;-77
2023/04/07 06:02:12;;;;;;;10.30;3.50;;;15.10;69.50;;;;;;4884153;29;20060;-79
2023/04/07 06:04:38;;;;;;;9.45;3.60;;;15.10;69.40;;;;;;4900314;29;20068;-77
2023/04/07 06:07:04;;;;;;;13.35;3.58;;;15.10;69.40;;;;;;4899925;29;20460;-78
2023/04/07 06:09:30;;;;;;;6.47;2.53;;;15.00;69.20;;;;;;4883329;29;20056;-80
2023/04/07 06:11:56;;;;;;;12.43;3.58;;;15.00;69.20;;;;;;4900691;29;20135;-77
2023/04/07 06:14:22;;;;;;;8.18;2.92;;;14.90;69.10;;;;;;4900134;29;20059;-77
2023/04/07 06:16:48;;;;;;;8.13;2.55;;;14.90;69.10;;;;;;4900602;29;20040;-78
2023/04/07 06:19:14;;;;;;;9.60;2.83;;;14.90;69.00;;;;;;4900133;29;20055;-78
2023/04/07 06:21:39;;;;;;;6.13;2.50;;;14.80;68.90;;;;;;4883740;29;20057;-77
2023/04/07 06:24:06;;;;;;;8.18;3.00;;;14.80;68.90;;;;;;4900502;29;20089;-76
2023/04/07 06:26:32;;;;;;;3.67;2.25;;;14.80;68.90;;;;;;4883389;29;20060;-77
2023/04/07 06:28:58;;;;;;;6.82;2.25;;;14.80;68.80;;;;;;4883563;29;20204;-78
2023/04/07 06:31:24;;;;;;;6.75;1.95;;;14.70;68.80;;;;;;4883525;29;20056;-78
2023/04/07 06:33:50;;;;;;;7.15;2.15;;;14.70;68.70;;;;;;4900139;29;20059;-77
2023/04/07 06:36:16;;;;;;;4.35;2.65;;;14.70;68.80;;;;;;4899865;29;20048;-78
2023/04/07 06:38:42;;;;;;;14.98;3.92;;;14.70;68.90;;;;;;4900136;29;20048;-75
2023/04/07 06:41:11;;;;;;;17.90;3.83;;;14.60;68.90;;;;;;4883503;29;20056;-80
2023/04/07 06:43:37;;;;;;;19.15;4.47;;;14.60;68.90;;;;;;4865745;29;20487;-76
2023/04/07 06:46:03;;;;;;;15.15;4.00;;;14.60;69.00;;;;;;4891251;29;20180;-76
2023/04/07 06:48:29;;;;;;;16.33;4.28;;;14.60;69.10;;;;;;4880631;29;20053;-75
2023/04/07 06:50:55;;;;;;;23.48;4.10;;;14.60;69.20;;;;;;4899715;29;20080;-76
2023/04/07 06:53:20;;;;;;;24.13;4.95;;;14.50;69.40;;;;;;4899919;29;20067;-76
2023/04/07 06:56:07;;;;;;;24.20;4.47;;;14.50;69.50;;;;;;4877614;29;20141;-81
2023/04/07 06:58:34;;;;;;;19.23;4.10;;;14.60;69.80;;;;;;4899104;29;20087;-76
2023/04/07 07:01:00;;;;;;;33.13;4.78;;;14.70;69.70;;;;;;4902054;29;20107;-74
2023/04/07 07:03:28;;;;;;;18.90;4.03;;;14.80;69.60;;;;;;4903739;29;20051;-75
2023/04/07 07:05:55;;;;;;;24.30;4.45;;;14.80;69.50;;;;;;4903422;29;20060;-78
2023/04/07 07:08:21;;;;;;;23.27;3.33;;;14.90;69.30;;;;;;4903308;29;20143;-78
2023/04/07 07:10:47;;;;;;;20.73;3.42;;;14.90;69.10;;;;;;4901590;29;20033;-78
2023/04/07 07:13:13;;;;;;;21.10;3.85;;;15.00;69.00;;;;;;4902999;29;20135;-76
2023/04/07 07:15:39;;;;;;;24.08;4.22;;;15.00;68.90;;;;;;4885986;29;20045;-80
2023/04/07 07:18:04;;;;;;;27.00;3.92;;;15.00;68.80;;;;;;4903106;29;20044;-79
2023/04/07 07:20:38;;;;;;;21.48;4.07;;;15.10;68.70;;;;;;4882939;29;20045;-82
2023/04/07 07:23:03;;;;;;;21.33;3.22;;;15.10;68.50;;;;;;4895974;29;20041;-77
2023/04/07 07:25:29;;;;;;;20.45;3.50;;;15.10;68.30;;;;;;4871036;29;20080;-81
2023/04/07 07:27:55;;;;;;;28.27;4.05;;;15.20;68.30;;;;;;4903120;29;20052;-77
2023/04/07 07:30:22;;;;;;;22.15;4.20;;;15.20;68.20;;;;;;4903102;29;20056;-75
2023/04/07 07:32:48;;;;;;;27.85;4.10;;;15.30;68.20;;;;;;4902333;29;20048;-78
2023/04/07 07:35:15;;;;;;;26.38;3.35;;;15.40;68.10;;;;;;4898755;29;20117;-77
2023/04/07 07:37:43;;;;;;;29.67;3.97;;;15.50;68.10;;;;;;4884173;29;20425;-79
2023/04/07 07:40:09;;;;;;;29.77;4.45;;;15.50;68.10;;;;;;4867803;29;20116;-81
2023/04/07 07:42:35;;;;;;;31.35;4.75;;;15.60;68.00;;;;;;4867441;29;20087;-79
2023/04/07 07:45:01;;;;;;;34.92;4.82;;;15.70;67.80;;;;;;4884237;29;20071;-76
2023/04/07 07:47:27;;;;;;;30.02;4.43;;;15.70;67.70;;;;;;4900781;29;20049;-74
2023/04/07 07:49:53;;;;;;;31.92;5.00;;;15.80;67.80;;;;;;4882235;29;20068;-77
2023/04/07 07:52:19;;;;;;;31.50;4.72;;;15.80;67.80;;;;;;4902571;29;20045;-78
2023/04/07 07:54:46;;;;;;;26.08;5.05;;;15.80;67.70;;;;;;4902784;29;20044;-74
2023/04/07 07:57:12;;;;;;;27.13;2.75;;;15.80;67.70;;;;;;4901332;29;20052;-79
2023/04/07 07:59:39;;;;;;;21.73;3.58;;;15.90;67.80;;;;;;4902253;29;20056;-81
2023/04/07 08:02:06;;;;;;;19.77;3.58;;;15.80;67.10;;;;;;4885975;29;20059;-79
2023/04/07 08:04:31;;;;;;;17.90;3.53;;;15.80;66.70;;;;;;4883923;29;20055;-76
2023/04/07 08:06:57;;;;;;;13.98;3.55;;;15.90;66.30;;;;;;4889090;29;20037;-76
2023/04/07 08:09:23;;;;;;;18.58;3.13;;;15.90;66.30;;;;;;4902376;29;20056;-76
2023/04/07 08:11:50;;;;;;;13.85;2.75;;;15.90;66.30;;;;;;4901189;29;20064;-77
2023/04/07 08:14:16;;;;;;;19.55;2.97;;;15.90;66.30;;;;;;4902516;29;20049;-78
2023/04/07 08:16:45;;;;;;;20.13;2.72;;;15.90;66.40;;;;;;4870599;29;20462;-80
2023/04/07 08:19:12;;;;;;;14.25;2.53;;;15.90;66.40;;;;;;4901168;29;20083;-78
2023/04/07 08:21:38;;;;;;;14.38;1.98;;;16.00;66.30;;;;;;4902100;29;20112;-78
2023/04/07 08:24:04;;;;;;;11.48;2.10;;;16.00;66.30;;;;;;4885532;29;20086;-77
2023/04/07 08:26:31;;;;;;;10.20;1.75;;;16.00;66.30;;;;;;4885126;29;20139;-78
2023/04/07 08:28:57;;;;;;;8.30;1.98;;;15.40;64.90;;;;;;4901489;29;20060;-82
2023/04/07 08:31:23;;;;;;;20.17;2.55;;;15.10;66.70;;;;;;4884568;29;20040;-82
2023/04/07 08:33:52;;;;;;;14.85;1.58;;;15.20;67.90;;;;;;4868227;29;20036;-81
2023/04/07 08:36:19;;;;;;;10.38;1.52;;;15.40;68.00;;;;;;4869591;29;20041;-80
2023/04/07 08:38:45;;;;;;;7.60;1.65;;;15.50;67.80;;;;;;4884508;29;20120;-79
2023/04/07 08:41:16;;;;;;;7.32;1.20;;;15.60;67.50;;;;;;4901238;29;20127;-80
2023/04/07 08:43:45;;;;;;;9.23;1.23;;;15.70;67.30;;;;;;4884884;29;20044;-81
2023/04/07 08:46:19;;;;;;;6.18;1.20;;;15.80;67.70;;;;;;4869198;29;20543;-82
2023/04/07 08:48:52;;;;;;;10.18;1.48;;;15.80;67.00;;;;;;4884888;29;20111;-79
2023/04/07 08:51:30;;;;;;;5.90;0.77;;;15.80;66.80;;;;;;4869637;29;20047;-81
2023/04/07 08:54:08;;;;;;;6.60;1.10;;;15.90;66.70;;;;;;4884967;29;20045;-83
2023/04/07 08:56:39;;;;;;;2.88;0.70;;;15.90;66.60;;;;;;4901675;29;20068;-83
2023/04/07 08:59:06;;;;;;;4.28;1.00;;;15.90;66.50;;;;;;4882482;29;20044;-80
2023/04/07 09:01:34;;;;;;;4.50;0.88;;;16.00;66.50;;;;;;4878550;29;20124;-78
2023/04/07 09:04:02;;;;;;;4.63;1.25;;;16.00;66.50;;;;;;4865982;29;20064;-78
2023/04/07 09:06:30;;;;;;;5.07;0.80;;;16.00;66.50;;;;;;4871908;29;20134;-80
2023/04/07 09:08:57;;;;;;;4.35;0.65;;;16.00;66.50;;;;;;4881397;29;20404;-83
2023/04/07 09:11:23;;;;;;;7.00;0.82;;;16.00;66.50;;;;;;4899739;29;20041;-80
2023/04/07 09:13:50;;;;;;;4.70;0.82;;;16.00;66.40;;;;;;4896974;29;20048;-81
2023/04/07 09:16:16;;;;;;;4.85;0.90;;;16.00;66.40;;;;;;4884521;29;20384;-81
2023/04/07 09:18:41;;;;;;;4.40;1.20;;;16.00;66.30;;;;;;4883725;29;20045;-80
2023/04/07 09:21:08;;;;;;;4.38;1.13;;;16.00;66.30;;;;;;4900578;29;20191;-79
2023/04/07 09:23:39;;;;;;;3.58;1.13;;;16.00;66.60;;;;;;4883198;29;20127;-79
2023/04/07 09:26:16;;;;;;;6.93;1.33;;;16.10;66.40;;;;;;4900651;29;20048;-78
2023/04/07 09:28:44;;;;;;;4.78;1.00;;;16.00;66.30;;;;;;4900721;29;20040;-79
2023/04/07 09:31:10;;;;;;;3.53;1.00;;;16.00;66.30;;;;;;4900893;29;20461;-80
2023/04/07 09:33:36;;;;;;;4.38;0.75;;;16.10;66.40;;;;;;4898872;29;20060;-79
2023/04/07 09:36:03;;;;;;;4.70;0.93;;;16.10;66.60;;;;;;4884031;29;20048;-80
2023/04/07 09:38:40;;;;;;;6.00;1.58;;;16.10;66.90;;;;;;4884565;29;20055;-80
2023/04/07 09:41:09;;;;;;;6.75;1.40;;;16.10;67.30;;;;;;4868043;29;20048;-75
2023/04/07 09:43:37;;;;;;;12.02;1.95;;;16.00;67.40;;;;;;4895273;29;20044;-80
2023/04/07 09:46:10;;;;;;;5.70;1.67;;;16.10;67.30;;;;;;4900473;29;20123;-78
2023/04/07 09:48:37;;;;;;;6.47;1.55;;;16.00;67.10;;;;;;4900595;29;20044;-76
2023/04/07 09:51:08;;;;;;;9.00;1.70;;;16.00;67.20;;;;;;4900388;29;20413;-77
2023/04/07 09:54:06;;;;;;;5.38;1.10;;;16.10;67.50;;;;;;4883872;29;20060;-78
2023/04/07 09:56:32;;;;;;;6.90;1.10;;;16.10;67.40;;;;;;4867395;29;20365;-80
2023/04/07 09:58:58;;;;;;;10.27;1.70;;;16.10;67.30;;;;;;4884282;29;20063;-79
2023/04/07 10:01:24;;;;;;;6.70;1.30;;;16.10;67.30;;;;;;4900332;29;20059;-78
2023/04/07 10:03:52;;;;;;;6.07;1.08;;;16.10;67.40;;;;;;4900263;29;20068;-78
2023/04/07 10:06:19;;;;;;;11.02;1.38;;;16.10;67.40;;;;;;4884270;29;20060;-81
2023/04/07 10:08:45;;;;;;;6.68;1.05;;;16.10;67.50;;;;;;4898112;29;20056;-80
2023/04/07 10:11:11;;;;;;;8.77;1.10;;;16.20;67.50;;;;;;4900054;29;20114;-78
2023/04/07 10:13:40;;;;;;;15.73;1.95;;;16.10;67.10;;;;;;4886261;29;20074;-80
2023/04/07 10:16:07;;;;;;;12.73;1.95;;;16.20;67.40;;;;;;4900274;29;20425;-78
2023/04/07 10:18:35;;;;;;;13.80;1.65;;;16.10;67.50;;;;;;4905010;29;20119;-79
2023/04/07 10:21:03;;;;;;;12.55;1.33;;;16.10;67.60;;;;;;4900142;29;20131;-80
2023/04/07 10:23:52;;;;;;;13.15;2.10;;;16.20;67.80;;;;;;4883534;29;20048;-80
2023/04/07 10:26:23;;;;;;;9.20;1.33;;;16.10;67.70;;;;;;4882980;29;20364;-79
2023/04/07 10:28:57;;;;;;;18.58;2.20;;;16.20;67.70;;;;;;4880365;29;20124;-78
2023/04/07 10:31:23;;;;;;;13.35;1.77;;;16.20;67.70;;;;;;4918474;29;20396;-79
2023/04/07 10:33:52;;;;;;;10.93;1.77;;;16.10;67.50;;;;;;4902042;29;20375;-79
2023/04/07 10:36:19;;;;;;;10.65;2.05;;;16.10;67.60;;;;;;4901047;29;20123;-79
2023/04/07 10:39:22;;;;;;;16.27;1.90;;;16.10;67.70;;;;;;4883518;29;20063;-79
2023/04/07 10:41:50;;;;;;;12.18;1.85;;;16.20;67.80;;;;;;4883797;29;20113;-79
2023/04/07 10:44:37;;;;;;;14.40;1.38;;;16.10;67.80;;;;;;4898683;29;20084;-81
2023/04/07 10:47:05;;;;;;;14.98;1.83;;;16.20;67.90;;;;;;4893861;29;20088;-80
2023/04/07 10:49:32;;;;;;;11.82;2.40;;;16.10;67.90;;;;;;4899662;29;20044;-77
2023/04/07 10:52:10;;;;;;;9.18;2.15;;;16.10;67.80;;;;;;4900208;29;20041;-79
2023/04/07 10:54:37;;;;;;;12.98;2.70;;;16.10;67.20;;;;;;4883087;29;20053;-78
2023/04/07 10:57:02;;;;;;;10.30;2.92;;;16.10;66.80;;;;;;4899894;29;20044;-79
2023/04/07 10:59:28;;;;;;;14.95;2.88;;;16.10;66.80;;;;;;4897424;29;20379;-79
2023/04/07 11:02:13;;;;;;;12.88;1.98;;;16.10;66.90;;;;;;4882754;29;20064;-78
2023/04/07 11:04:44;;;;;;;18.15;3.25;;;16.10;66.80;;;;;;4898033;29;20350;-82
2023/04/07 11:07:12;;;;;;;10.40;2.85;;;16.10;67.20;;;;;;4899620;29;20044;-81
2023/04/07 11:09:41;;;;;;;9.27;2.10;;;16.10;66.40;;;;;;4867735;29;20052;-80
2023/04/07 11:12:07;;;;;;;10.57;2.58;;;16.10;66.30;;;;;;4882619;29;20053;-80
2023/04/07 11:14:36;;;;;;;14.75;2.15;;;16.00;66.30;;;;;;4899486;29;20052;-79
2023/04/07 11:17:03;;;;;;;11.93;2.05;;;16.00;66.30;;;;;;4884120;29;20056;-78
2023/04/07 11:19:31;;;;;;;7.18;1.60;;;16.00;66.30;;;;;;4898496;29;20084;-79
2023/04/07 11:22:17;;;;;;;7.57;1.98;;;16.00;66.40;;;;;;4868510;29;20068;-79
2023/04/07 11:24:44;;;;;;;6.50;1.58;;;16.00;66.30;;;;;;4899742;29;20044;-79
2023/04/07 11:27:13;;;;;;;6.13;1.30;;;15.90;66.40;;;;;;4899307;29;20084;-77
2023/04/07 11:29:39;;;;;;;6.53;1.20;;;15.90;66.40;;;;;;4899518;29;20044;-77
2023/04/07 11:32:05;;;;;;;7.68;1.42;;;15.90;66.40;;;;;;4899433;29;20453;-77
2023/04/07 11:34:32;;;;;;;5.00;1.10;;;15.90;66.40;;;;;;4883004;29;20079;-79
2023/04/07 11:37:17;;;;;;;7.35;1.55;;;15.80;66.40;;;;;;4899451;29;20136;-80
2023/04/07 11:39:45;;;;;;;3.70;1.15;;;15.80;66.40;;;;;;4899612;29;20063;-82
2023/04/07 11:42:11;;;;;;;4.47;1.00;;;15.80;66.40;;;;;;4899433;29;20113;-78
2023/04/07 11:44:46;;;;;;;2.97;0.70;;;15.80;66.40;;;;;;4883047;29;20360;-80
2023/04/07 11:47:12;;;;;;;2.30;0.85;;;15.80;66.40;;;;;;4885181;29;20056;-79
2023/04/07 11:49:45;;;;;;;2.88;0.70;;;15.80;66.40;;;;;;4902087;29;20049;-78
2023/04/07 11:52:10;;;;;;;5.88;0.70;;;15.80;66.40;;;;;;4902168;29;20048;-77
2023/04/07 11:54:45;;;;;;;4.68;0.80;;;15.70;66.40;;;;;;4902664;29;20060;-78
2023/04/07 11:57:12;;;;;;;3.33;0.63;;;15.70;66.40;;;;;;4886298;29;20372;-78
2023/04/07 11:59:40;;;;;;;2.72;0.63;;;15.70;66.40;;;;;;4898324;29;20037;-78
2023/04/07 12:02:06;;;;;;;2.45;0.70;;;15.70;66.40;;;;;;4881724;29;20056;-77
2023/04/07 12:04:35;;;;;;;2.40;0.40;;;15.70;66.40;;;;;;4853804;29;20460;-77
2023/04/07 12:07:10;;;;;;;1.95;0.40;;;15.70;66.40;;;;;;4886131;29;20052;-76
2023/04/07 12:09:37;;;;;;;1.80;0.40;;;15.70;66.40;;;;;;4899971;29;20120;-78
2023/04/07 12:12:05;;;;;;;1.88;0.70;;;15.70;66.40;;;;;;4902353;29;20059;-81
2023/04/07 12:14:31;;;;;;;1.83;0.70;;;15.60;66.40;;;;;;4885824;29;20049;-83
2023/04/07 12:16:57;;;;;;;1.75;0.50;;;15.60;66.40;;;;;;4885634;29;20045;-81
2023/04/07 12:19:31;;;;;;;4.72;1.55;;;15.60;66.50;;;;;;4870500;29;20051;-84
2023/04/07 12:21:57;;;;;;;;;;;15.70;65.80;;;;;;4885969;29;20055;-85
2023/04/07 12:24:23;;;;;;;8.55;4.07;;;15.60;64.50;;;;;;4870496;29;20006;-80
2023/04/07 12:26:49;;;;;;;10.32;4.13;;;15.60;63.10;;;;;;4885751;29;20040;-77
2023/04/07 12:29:16;;;;;;;24.77;6.20;;;15.40;63.50;;;;;;4902009;29;20108;-85
2023/04/07 12:31:42;;;;;;;13.07;3.40;;;15.40;64.10;;;;;;4901918;29;20072;-76
2023/04/07 12:34:08;;;;;;;13.50;3.53;;;15.30;65.00;;;;;;4869899;29;20044;-76
2023/04/07 12:36:35;;;;;;;14.65;3.92;;;15.30;65.30;;;;;;4901701;29;20044;-77
2023/04/07 12:39:01;;;;;;;14.13;3.40;;;15.30;65.40;;;;;;4901727;29;20044;-75
2023/04/07 12:41:27;;;;;;;16.92;4.07;;;15.40;65.60;;;;;;4901639;29;20487;-77